Terminal Aerodrome Forecast
Issued by NWS Knoxville/Tri Cities, TN

Current Version | Previous Version | Text Only | Print | Product List | Glossary On
Versions: 1 2 3 4 5 6 7 8 9 10 11 12 13 14 15 16 17 18 19 20 21 22 23 24 25 26 27 28 29 30 31 32
000
FTUS44 KMRX 262320
TAFTRI
TAF
KTRI 262320Z 2700/2724 28010KT P6SM OVC025
     FM270300 28005KT P6SM OVC015
     FM271500 27004KT P6SM OVC025
     FM272100 26007KT P6SM BKN150=

USA.gov is the U.S. government's official web portal to all federal, state and local government web resources and services.